sensor_id;sensor_type;location;lat;lon;timestamp;pressure;altitude;pressure_sealevel;temperature;humidity
8298;BME280;4187;42.778;23.242;2023-05-11T00:01:21;95507.50;;;10.35;100.00
8298;BME280;4187;42.778;23.242;2023-05-11T00:03:48;95517.06;;;10.36;100.00
8298;BME280;4187;42.778;23.242;2023-05-11T00:06:14;95517.34;;;10.33;100.00
8298;BME280;4187;42.778;23.242;2023-05-11T00:08:41;95504.44;;;10.30;100.00
8298;BME280;4187;42.778;23.242;2023-05-11T00:11:09;95512.47;;;10.28;100.00
8298;BME280;4187;42.778;23.242;2023-05-11T00:13:36;95517.75;;;10.18;100.00
8298;BME280;4187;42.778;23.242;2023-05-11T00:16:03;95524.56;;;10.21;100.00
8298;BME280;4187;42.778;23.242;2023-05-11T00:18:30;95515.38;;;10.15;100.00
8298;BME280;4187;42.778;23.242;2023-05-11T00:20:57;95515.38;;;10.15;100.00
8298;BME280;4187;42.778;23.242;2023-05-11T00:23:23;95513.00;;;10.12;100.00
8298;BME280;4187;42.778;23.242;2023-05-11T00:25:50;95518.69;;;10.08;100.00
8298;BME280;4187;42.778;23.242;2023-05-11T00:28:18;95510.88;;;10.06;100.00
8298;BME280;4187;42.778;23.242;2023-05-11T00:30:45;95498.81;;;10.04;100.00
8298;BME280;4187;42.778;23.242;2023-05-11T00:33:12;95513.63;;;9.95;100.00
8298;BME280;4187;42.778;23.242;2023-05-11T00:35:40;95517.94;;;9.96;100.00
8298;BME280;4187;42.778;23.242;2023-05-11T00:38:07;95509.78;;;9.99;100.00
8298;BME280;4187;42.778;23.242;2023-05-11T00:40:34;95518.34;;;9.92;100.00
8298;BME280;4187;42.778;23.242;2023-05-11T00:43:00;95518.91;;;9.86;100.00
8298;BME280;4187;42.778;23.242;2023-05-11T00:45:29;95512.78;;;9.76;100.00
8298;BME280;4187;42.778;23.242;2023-05-11T00:47:57;95525.38;;;9.82;100.00
8298;BME280;4187;42.778;23.242;2023-05-11T00:50:24;95517.19;;;9.75;100.00
8298;BME280;4187;42.778;23.242;2023-05-11T00:52:51;95529.81;;;9.72;100.00
8298;BME280;4187;42.778;23.242;2023-05-11T00:55:19;95524.41;;;9.73;100.00
8298;BME280;4187;42.778;23.242;2023-05-11T00:57:46;95505.75;;;9.55;100.00
8298;BME280;4187;42.778;23.242;2023-05-11T01:00:13;95529.38;;;9.67;100.00
8298;BME280;4187;42.778;23.242;2023-05-11T01:02:42;95528.13;;;9.71;100.00
8298;BME280;4187;42.778;23.242;2023-05-11T01:05:09;95527.84;;;9.64;100.00
8298;BME280;4187;42.778;23.242;2023-05-11T01:07:39;95517.41;;;9.62;100.00
8298;BME280;4187;42.778;23.242;2023-05-11T01:10:14;95528.69;;;9.65;100.00
8298;BME280;4187;42.778;23.242;2023-05-11T01:12:50;95536.59;;;9.65;100.00
8298;BME280;4187;42.778;23.242;2023-05-11T01:15:23;95532.78;;;9.57;100.00
8298;BME280;4187;42.778;23.242;2023-05-11T01:17:57;95523.50;;;9.53;100.00
8298;BME280;4187;42.778;23.242;2023-05-11T01:20:29;95516.53;;;9.43;100.00
8298;BME280;4187;42.778;23.242;2023-05-11T01:23:11;95534.16;;;9.52;100.00
8298;BME280;4187;42.778;23.242;2023-05-11T01:25:55;95541.50;;;9.48;100.00
8298;BME280;4187;42.778;23.242;2023-05-11T01:28:51;95539.81;;;9.47;100.00
8298;BME280;4187;42.778;23.242;2023-05-11T01:31:28;95540.41;;;9.51;100.00
8298;BME280;4187;42.778;23.242;2023-05-11T01:33:58;95530.97;;;9.48;100.00
8298;BME280;4187;42.778;23.242;2023-05-11T01:36:29;95534.16;;;9.52;100.00
8298;BME280;4187;42.778;23.242;2023-05-11T01:39:01;95532.78;;;9.57;100.00
8298;BME280;4187;42.778;23.242;2023-05-11T01:41:32;95538.31;;;9.54;100.00
8298;BME280;4187;42.778;23.242;2023-05-11T01:44:04;95535.69;;;9.54;100.00
8298;BME280;4187;42.778;23.242;2023-05-11T01:46:33;95508.31;;;9.36;100.00
8298;BME280;4187;42.778;23.242;2023-05-11T01:49:02;95544.84;;;9.50;100.00
8298;BME280;4187;42.778;23.242;2023-05-11T01:51:33;95509.91;;;9.28;100.00
8298;BME280;4187;42.778;23.242;2023-05-11T01:54:01;95549.66;;;9.45;100.00
8298;BME280;4187;42.778;23.242;2023-05-11T01:56:30;95551.31;;;9.46;100.00
8298;BME280;4187;42.778;23.242;2023-05-11T01:58:58;95546.50;;;9.51;100.00
8298;BME280;4187;42.778;23.242;2023-05-11T02:01:28;95544.13;;;9.48;100.00
8298;BME280;4187;42.778;23.242;2023-05-11T02:03:57;95543.88;;;9.51;100.00
8298;BME280;4187;42.778;23.242;2023-05-11T02:06:26;95552.59;;;9.52;100.00
8298;BME280;4187;42.778;23.242;2023-05-11T02:08:55;95541.44;;;9.39;100.00
8298;BME280;4187;42.778;23.242;2023-05-11T02:11:25;95546.00;;;9.37;100.00
8298;BME280;4187;42.778;23.242;2023-05-11T02:13:55;95546.41;;;9.32;100.00
8298;BME280;4187;42.778;23.242;2023-05-11T02:16:24;95533.88;;;9.25;100.00
8298;BME280;4187;42.778;23.242;2023-05-11T02:18:53;95541.84;;;9.34;100.00
8298;BME280;4187;42.778;23.242;2023-05-11T02:21:21;95542.81;;;9.33;100.00
8298;BME280;4187;42.778;23.242;2023-05-11T02:23:50;95530.88;;;9.29;100.00
8298;BME280;4187;42.778;23.242;2023-05-11T02:26:19;95535.41;;;9.27;100.00
8298;BME280;4187;42.778;23.242;2023-05-11T02:28:46;95526.25;;;9.22;100.00
8298;BME280;4187;42.778;23.242;2023-05-11T02:31:16;95533.06;;;9.24;100.00
8298;BME280;4187;42.778;23.242;2023-05-11T02:33:47;95526.25;;;9.22;100.00
8298;BME280;4187;42.778;23.242;2023-05-11T02:36:17;95531.66;;;9.20;100.00
8298;BME280;4187;42.778;23.242;2023-05-11T02:38:47;95528.56;;;9.15;100.00
8298;BME280;4187;42.778;23.242;2023-05-11T02:41:17;95532.16;;;9.14;100.00
8298;BME280;4187;42.778;23.242;2023-05-11T02:43:50;95528.50;;;9.26;100.00
8298;BME280;4187;42.778;23.242;2023-05-11T02:46:19;95526.25;;;9.22;100.00
8298;BME280;4187;42.778;23.242;2023-05-11T02:48:51;95534.88;;;9.24;100.00
8298;BME280;4187;42.778;23.242;2023-05-11T02:51:23;95531.91;;;9.17;100.00
8298;BME280;4187;42.778;23.242;2023-05-11T02:53:55;95529.00;;;9.20;100.00
8298;BME280;4187;42.778;23.242;2023-05-11T02:56:24;95516.69;;;9.21;100.00
8298;BME280;4187;42.778;23.242;2023-05-11T02:58:51;95523.75;;;9.20;100.00
8298;BME280;4187;42.778;23.242;2023-05-11T03:01:18;95524.50;;;9.11;100.00
8298;BME280;4187;42.778;23.242;2023-05-11T03:03:45;95527.16;;;9.11;100.00
8298;BME280;4187;42.778;23.242;2023-05-11T03:06:14;95522.97;;;9.09;100.00
8298;BME280;4187;42.778;23.242;2023-05-11T03:08:41;95536.03;;;9.10;100.00
8298;BME280;4187;42.778;23.242;2023-05-11T03:11:10;95522.16;;;9.08;100.00
8298;BME280;4187;42.778;23.242;2023-05-11T03:13:40;95522.09;;;8.98;100.00
8298;BME280;4187;42.778;23.242;2023-05-11T03:16:08;95531.03;;;9.07;100.00
8298;BME280;4187;42.778;23.242;2023-05-11T03:18:37;95503.22;;;8.93;100.00
8298;BME280;4187;42.778;23.242;2023-05-11T03:21:04;95529.59;;;9.03;100.00
8298;BME280;4187;42.778;23.242;2023-05-11T03:23:34;95529.53;;;9.14;100.00
8298;BME280;4187;42.778;23.242;2023-05-11T03:26:02;95538.00;;;9.18;100.00
8298;BME280;4187;42.778;23.242;2023-05-11T03:28:30;95537.75;;;9.21;100.00
8298;BME280;4187;42.778;23.242;2023-05-11T03:30:58;95539.09;;;9.15;100.00
8298;BME280;4187;42.778;23.242;2023-05-11T03:33:25;95542.84;;;9.13;100.00
8298;BME280;4187;42.778;23.242;2023-05-11T03:35:52;95540.00;;;9.05;100.00
8298;BME280;4187;42.778;23.242;2023-05-11T03:38:21;95540.41;;;9.00;100.00
8298;BME280;4187;42.778;23.242;2023-05-11T03:40:50;95541.47;;;8.97;100.00
8298;BME280;4187;42.778;23.242;2023-05-11T03:43:19;95524.03;;;8.96;100.00
8298;BME280;4187;42.778;23.242;2023-05-11T03:45:49;95542.44;;;8.96;100.00
8298;BME280;4187;42.778;23.242;2023-05-11T03:48:17;95542.84;;;8.92;100.00
8298;BME280;4187;42.778;23.242;2023-05-11T03:50:45;95544.91;;;8.88;100.00
8298;BME280;4187;42.778;23.242;2023-05-11T03:53:14;95505.28;;;8.69;100.00
8298;BME280;4187;42.778;23.242;2023-05-11T03:55:41;95545.00;;;8.87;100.00
8298;BME280;4187;42.778;23.242;2023-05-11T03:58:10;95545.97;;;8.86;100.00
8298;BME280;4187;42.778;23.242;2023-05-11T04:00:37;95545.28;;;8.84;100.00
8298;BME280;4187;42.778;23.242;2023-05-11T04:03:06;95548.72;;;8.84;100.00
8298;BME280;4187;42.778;23.242;2023-05-11T04:05:33;95551.34;;;8.84;100.00
8298;BME280;4187;42.778;23.242;2023-05-11T04:08:00;95547.53;;;8.88;100.00
8298;BME280;4187;42.778;23.242;2023-05-11T04:10:28;95543.84;;;8.80;100.00
8298;BME280;4187;42.778;23.242;2023-05-11T04:12:54;95557.28;;;9.18;100.00
8298;BME280;4187;42.778;23.242;2023-05-11T04:15:21;95564.34;;;9.18;100.00
8298;BME280;4187;42.778;23.242;2023-05-11T04:17:48;95564.22;;;8.98;100.00
8298;BME280;4187;42.778;23.242;2023-05-11T04:20:16;95558.25;;;8.96;100.00
8298;BME280;4187;42.778;23.242;2023-05-11T04:22:43;95547.38;;;8.90;100.00
8298;BME280;4187;42.778;23.242;2023-05-11T04:25:10;95553.03;;;8.85;100.00
8298;BME280;4187;42.778;23.242;2023-05-11T04:27:38;95555.81;;;8.84;100.00
8298;BME280;4187;42.778;23.242;2023-05-11T04:30:06;95563.44;;;8.87;100.00
8298;BME280;4187;42.778;23.242;2023-05-11T04:32:33;95556.47;;;8.97;100.00
8298;BME280;4187;42.778;23.242;2023-05-11T04:35:00;95551.31;;;8.95;100.00
8298;BME280;4187;42.778;23.242;2023-05-11T04:37:28;95561.00;;;8.95;100.00
8298;BME280;4187;42.778;23.242;2023-05-11T04:39:56;95555.03;;;8.93;100.00
8298;BME280;4187;42.778;23.242;2023-05-11T04:42:23;95525.50;;;8.69;100.00
8298;BME280;4187;42.778;23.242;2023-05-11T04:44:52;95556.38;;;8.87;100.00
8298;BME280;4187;42.778;23.242;2023-05-11T04:47:19;95566.53;;;8.92;100.00
8298;BME280;4187;42.778;23.242;2023-05-11T04:49:45;95567.00;;;8.97;100.00
8298;BME280;4187;42.778;23.242;2023-05-11T04:52:12;95564.59;;;8.94;100.00
8298;BME280;4187;42.778;23.242;2023-05-11T04:54:40;95563.91;;;8.92;100.00
8298;BME280;4187;42.778;23.242;2023-05-11T04:57:07;95558.56;;;8.82;100.00
8298;BME280;4187;42.778;23.242;2023-05-11T04:59:34;95569.16;;;8.92;100.00
8298;BME280;4187;42.778;23.242;2023-05-11T05:02:01;95571.66;;;8.93;100.00
8298;BME280;4187;42.778;23.242;2023-05-11T05:04:27;95535.06;;;8.70;100.00
8298;BME280;4187;42.778;23.242;2023-05-11T05:06:54;95568.19;;;8.93;100.00
8298;BME280;4187;42.778;23.242;2023-05-11T05:09:21;95572.50;;;8.94;100.00
8298;BME280;4187;42.778;23.242;2023-05-11T05:11:49;95582.53;;;9.00;100.00
8298;BME280;4187;42.778;23.242;2023-05-11T05:14:16;95576.88;;;9.05;100.00
8298;BME280;4187;42.778;23.242;2023-05-11T05:16:43;95582.25;;;9.03;100.00
8298;BME280;4187;42.778;23.242;2023-05-11T05:19:10;95579.34;;;9.06;100.00
8298;BME280;4187;42.778;23.242;2023-05-11T05:21:37;95590.91;;;9.15;100.00
8298;BME280;4187;42.778;23.242;2023-05-11T05:24:05;95586.34;;;9.17;100.00
8298;BME280;4187;42.778;23.242;2023-05-11T05:26:35;95587.25;;;9.06;100.00
8298;BME280;4187;42.778;23.242;2023-05-11T05:29:03;95589.63;;;9.09;100.00
8298;BME280;4187;42.778;23.242;2023-05-11T05:31:30;95576.97;;;9.03;100.00
8298;BME280;4187;42.778;23.242;2023-05-11T05:33:57;95585.91;;;9.12;100.00
8298;BME280;4187;42.778;23.242;2023-05-11T05:36:24;95586.63;;;9.14;100.00
8298;BME280;4187;42.778;23.242;2023-05-11T05:38:50;95593.69;;;9.13;100.00
8298;BME280;4187;42.778;23.242;2023-05-11T05:41:17;95589.56;;;9.20;100.00
8298;BME280;4187;42.778;23.242;2023-05-11T05:43:46;95599.47;;;9.28;100.00
8298;BME280;4187;42.778;23.242;2023-05-11T05:46:15;95590.59;;;9.29;100.00
8298;BME280;4187;42.778;23.242;2023-05-11T05:48:41;95591.50;;;9.39;100.00
8298;BME280;4187;42.778;23.242;2023-05-11T05:51:08;95586.63;;;9.34;100.00
8298;BME280;4187;42.778;23.242;2023-05-11T05:53:35;95600.63;;;9.35;100.00
8298;BME280;4187;42.778;23.242;2023-05-11T05:56:03;95597.16;;;9.34;100.00
8298;BME280;4187;42.778;23.242;2023-05-11T05:58:29;95596.47;;;9.32;100.00
8298;BME280;4187;42.778;23.242;2023-05-11T06:00:56;95607.28;;;9.39;100.00
8298;BME280;4187;42.778;23.242;2023-05-11T06:03:24;95598.88;;;9.45;100.00
8298;BME280;4187;42.778;23.242;2023-05-11T06:05:51;95604.41;;;9.42;100.00
8298;BME280;4187;42.778;23.242;2023-05-11T06:08:18;95610.75;;;9.39;100.00
8298;BME280;4187;42.778;23.242;2023-05-11T06:10:45;95603.72;;;9.40;100.00
8298;BME280;4187;42.778;23.242;2023-05-11T06:13:12;95609.22;;;9.37;100.00
8298;BME280;4187;42.778;23.242;2023-05-11T06:15:38;95601.78;;;9.21;100.00
8298;BME280;4187;42.778;23.242;2023-05-11T06:18:05;95613.34;;;9.30;100.00
8298;BME280;4187;42.778;23.242;2023-05-11T06:20:33;95621.81;;;9.33;100.00
8298;BME280;4187;42.778;23.242;2023-05-11T06:23:00;95612.38;;;9.31;100.00
8298;BME280;4187;42.778;23.242;2023-05-11T06:25:27;95620.53;;;9.28;100.00
8298;BME280;4187;42.778;23.242;2023-05-11T06:27:54;95626.88;;;9.25;100.00
8298;BME280;4187;42.778;23.242;2023-05-11T06:30:20;95622.22;;;9.29;100.00
8298;BME280;4187;42.778;23.242;2023-05-11T06:32:47;95620.97;;;9.33;100.00
8298;BME280;4187;42.778;23.242;2023-05-11T06:35:14;95623.50;;;9.34;100.00
8298;BME280;4187;42.778;23.242;2023-05-11T06:37:42;95629.91;;;9.41;100.00
8298;BME280;4187;42.778;23.242;2023-05-11T06:40:12;95616.22;;;9.47;100.00
8298;BME280;4187;42.778;23.242;2023-05-11T06:42:40;95641.22;;;9.53;100.00
8298;BME280;4187;42.778;23.242;2023-05-11T06:45:08;95631.78;;;9.50;100.00
8298;BME280;4187;42.778;23.242;2023-05-11T06:47:35;95636.78;;;9.53;100.00
8298;BME280;4187;42.778;23.242;2023-05-11T06:50:02;95625.00;;;9.57;100.00
8298;BME280;4187;42.778;23.242;2023-05-11T06:52:29;95629.19;;;9.60;100.00
8298;BME280;4187;42.778;23.242;2023-05-11T06:54:57;95638.69;;;9.72;100.00
8298;BME280;4187;42.778;23.242;2023-05-11T06:57:24;95640.47;;;9.72;100.00
8298;BME280;4187;42.778;23.242;2023-05-11T06:59:51;95639.19;;;9.66;100.00
8298;BME280;4187;42.778;23.242;2023-05-11T07:02:17;95633.09;;;9.66;100.00
8298;BME280;4187;42.778;23.242;2023-05-11T07:04:44;95624.28;;;9.76;100.00
8298;BME280;4187;42.778;23.242;2023-05-11T07:07:11;95619.34;;;9.92;100.00
8298;BME280;4187;42.778;23.242;2023-05-11T07:09:38;95635.03;;;9.94;100.00
8298;BME280;4187;42.778;23.242;2023-05-11T07:12:06;95638.38;;;9.96;100.00
8298;BME280;4187;42.778;23.242;2023-05-11T07:14:33;95585.91;;;9.62;100.00
8298;BME280;4187;42.778;23.242;2023-05-11T07:17:00;95628.31;;;10.10;100.00
8298;BME280;4187;42.778;23.242;2023-05-11T07:19:26;95648.63;;;10.19;100.00
8298;BME280;4187;42.778;23.242;2023-05-11T07:21:53;95645.28;;;10.17;100.00
8298;BME280;4187;42.778;23.242;2023-05-11T07:24:20;95656.28;;;10.23;100.00
8298;BME280;4187;42.778;23.242;2023-05-11T07:26:47;95651.16;;;10.31;100.00
8298;BME280;4187;42.778;23.242;2023-05-11T07:29:16;95657.97;;;10.33;100.00
8298;BME280;4187;42.778;23.242;2023-05-11T07:31:43;95656.59;;;10.39;100.00
8298;BME280;4187;42.778;23.242;2023-05-11T07:34:10;95647.34;;;10.54;100.00
8298;BME280;4187;42.778;23.242;2023-05-11T07:36:37;95645.16;;;10.68;100.00
8298;BME280;4187;42.778;23.242;2023-05-11T07:39:03;95653.78;;;10.80;100.00
8298;BME280;4187;42.778;23.242;2023-05-11T07:41:30;95646.13;;;10.77;100.00
8298;BME280;4187;42.778;23.242;2023-05-11T07:43:59;95647.28;;;10.94;100.00
8298;BME280;4187;42.778;23.242;2023-05-11T07:46:27;95657.16;;;10.92;100.00
8298;BME280;4187;42.778;23.242;2023-05-11T07:48:54;95649.63;;;10.87;100.00
8298;BME280;4187;42.778;23.242;2023-05-11T07:51:21;95648.81;;;10.96;100.00
8298;BME280;4187;42.778;23.242;2023-05-11T07:53:48;95646.56;;;11.01;100.00
8298;BME280;4187;42.778;23.242;2023-05-11T07:56:15;95658.53;;;10.96;100.00
8298;BME280;4187;42.778;23.242;2023-05-11T07:58:41;95655.75;;;10.88;100.00
8298;BME280;4187;42.778;23.242;2023-05-11T08:01:08;95647.97;;;10.86;100.00
8298;BME280;4187;42.778;23.242;2023-05-11T08:03:36;95659.94;;;11.00;100.00
8298;BME280;4187;42.778;23.242;2023-05-11T08:06:04;95660.50;;;11.13;100.00
8298;BME280;4187;42.778;23.242;2023-05-11T08:08:31;95667.84;;;11.09;100.00
8298;BME280;4187;42.778;23.242;2023-05-11T08:10:58;95663.81;;;11.05;100.00
8298;BME280;4187;42.778;23.242;2023-05-11T08:13:26;95656.31;;;11.10;100.00
8298;BME280;4187;42.778;23.242;2023-05-11T08:15:52;95647.16;;;11.24;100.00
8298;BME280;4187;42.778;23.242;2023-05-11T08:18:19;95648.25;;;11.40;100.00
8298;BME280;4187;42.778;23.242;2023-05-11T08:20:48;95662.13;;;11.52;100.00
8298;BME280;4187;42.778;23.242;2023-05-11T08:23:14;95662.56;;;11.48;100.00
8298;BME280;4187;42.778;23.242;2023-05-11T08:25:48;95597.78;;;11.15;100.00
8298;BME280;4187;42.778;23.242;2023-05-11T08:28:15;95655.19;;;11.51;100.00
8298;BME280;4187;42.778;23.242;2023-05-11T08:30:42;95650.84;;;11.60;100.00
8298;BME280;4187;42.778;23.242;2023-05-11T08:33:09;95658.63;;;11.71;100.00
8298;BME280;4187;42.778;23.242;2023-05-11T08:35:37;95657.38;;;11.65;100.00
8298;BME280;4187;42.778;23.242;2023-05-11T08:38:05;95661.41;;;11.79;100.00
8298;BME280;4187;42.778;23.242;2023-05-11T08:40:32;95662.91;;;11.91;100.00
8298;BME280;4187;42.778;23.242;2023-05-11T08:42:59;95670.53;;;12.04;100.00
8298;BME280;4187;42.778;23.242;2023-05-11T08:45:26;95659.72;;;11.97;100.00
8298;BME280;4187;42.778;23.242;2023-05-11T08:47:53;95672.81;;;11.89;100.00
8298;BME280;4187;42.778;23.242;2023-05-11T08:50:20;95674.50;;;11.71;100.00
8298;BME280;4187;42.778;23.242;2023-05-11T08:52:48;95667.28;;;11.73;100.00
8298;BME280;4187;42.778;23.242;2023-05-11T08:55:16;95662.25;;;11.79;100.00
8298;BME280;4187;42.778;23.242;2023-05-11T08:57:43;95648.34;;;11.58;100.00
8298;BME280;4187;42.778;23.242;2023-05-11T09:00:12;95649.31;;;11.76;100.00
8298;BME280;4187;42.778;23.242;2023-05-11T09:02:39;95655.72;;;11.83;100.00
8298;BME280;4187;42.778;23.242;2023-05-11T09:05:07;95643.31;;;11.84;100.00
8298;BME280;4187;42.778;23.242;2023-05-11T09:07:35;95648.63;;;11.84;100.00
8298;BME280;4187;42.778;23.242;2023-05-11T09:10:05;95648.47;;;11.85;100.00
8298;BME280;4187;42.778;23.242;2023-05-11T09:12:34;95647.78;;;11.83;100.00
8298;BME280;4187;42.778;23.242;2023-05-11T09:15:01;95641.94;;;11.80;100.00
8298;BME280;4187;42.778;23.242;2023-05-11T09:17:28;95616.22;;;11.72;100.00
8298;BME280;4187;42.778;23.242;2023-05-11T09:19:59;95616.16;;;11.82;100.00
8298;BME280;4187;42.778;23.242;2023-05-11T09:22:26;95624.50;;;11.87;100.00
8298;BME280;4187;42.778;23.242;2023-05-11T09:24:53;95633.94;;;11.99;100.00
8298;BME280;4187;42.778;23.242;2023-05-11T09:27:23;95645.03;;;12.12;100.00
8298;BME280;4187;42.778;23.242;2023-05-11T09:29:52;95654.75;;;12.21;100.00
8298;BME280;4187;42.778;23.242;2023-05-11T09:32:19;95631.78;;;12.22;100.00
8298;BME280;4187;42.778;23.242;2023-05-11T09:34:46;95643.97;;;12.32;100.00
8298;BME280;4187;42.778;23.242;2023-05-11T09:37:17;95642.19;;;12.23;100.00
8298;BME280;4187;42.778;23.242;2023-05-11T09:39:44;95643.03;;;12.24;100.00
8298;BME280;4187;42.778;23.242;2023-05-11T09:42:15;95623.47;;;12.07;100.00
8298;BME280;4187;42.778;23.242;2023-05-11T09:44:42;95645.03;;;12.12;100.00
8298;BME280;4187;42.778;23.242;2023-05-11T09:47:12;95636.44;;;12.00;100.00
8298;BME280;4187;42.778;23.242;2023-05-11T09:49:39;95631.66;;;12.14;100.00
8298;BME280;4187;42.778;23.242;2023-05-11T09:52:09;95634.59;;;12.11;100.00
8298;BME280;4187;42.778;23.242;2023-05-11T09:54:40;95636.34;;;12.20;100.00
8298;BME280;4187;42.778;23.242;2023-05-11T09:57:24;95619.03;;;12.35;100.00
8298;BME280;4187;42.778;23.242;2023-05-11T09:59:51;95626.78;;;12.46;100.00
8298;BME280;4187;42.778;23.242;2023-05-11T10:02:21;95630.09;;;12.48;100.00
8298;BME280;4187;42.778;23.242;2023-05-11T10:04:49;95621.22;;;12.67;100.00
8298;BME280;4187;42.778;23.242;2023-05-11T10:07:27;95619.44;;;12.57;100.00
8298;BME280;4187;42.778;23.242;2023-05-11T10:09:56;95618.31;;;12.60;100.00
8298;BME280;4187;42.778;23.242;2023-05-11T10:12:24;95624.81;;;12.66;100.00
8298;BME280;4187;42.778;23.242;2023-05-11T10:14:54;95609.94;;;12.65;100.00
8298;BME280;4187;42.778;23.242;2023-05-11T10:17:24;95598.22;;;12.67;100.00
8298;BME280;4187;42.778;23.242;2023-05-11T10:19:53;95604.56;;;12.74;100.00
8298;BME280;4187;42.778;23.242;2023-05-11T10:22:21;95593.38;;;12.80;100.00
8298;BME280;4187;42.778;23.242;2023-05-11T10:24:49;95606.19;;;13.02;100.00
8298;BME280;4187;42.778;23.242;2023-05-11T10:27:16;95598.16;;;13.12;100.00
8298;BME280;4187;42.778;23.242;2023-05-11T10:29:43;95609.84;;;13.19;100.00
8298;BME280;4187;42.778;23.242;2023-05-11T10:32:11;95599.75;;;13.23;100.00
8298;BME280;4187;42.778;23.242;2023-05-11T10:34:40;95583.41;;;13.09;100.00
8298;BME280;4187;42.778;23.242;2023-05-11T10:37:08;95598.38;;;13.36;100.00
8298;BME280;4187;42.778;23.242;2023-05-11T10:39:36;95586.97;;;13.61;100.00
8298;BME280;4187;42.778;23.242;2023-05-11T10:42:15;95593.47;;;13.67;100.00
8298;BME280;4187;42.778;23.242;2023-05-11T10:45:02;95554.53;;;13.67;100.00
8298;BME280;4187;42.778;23.242;2023-05-11T10:50:50;95586.97;;;13.95;99.68
8298;BME280;4187;42.778;23.242;2023-05-11T10:53:38;95607.75;;;14.00;99.62
8298;BME280;4187;42.778;23.242;2023-05-11T10:56:18;95591.00;;;14.33;98.15
8298;BME280;4187;42.778;23.242;2023-05-11T10:59:05;95600.00;;;14.40;98.48
8298;BME280;4187;42.778;23.242;2023-05-11T11:01:40;95566.59;;;14.29;98.00
8298;BME280;4187;42.778;23.242;2023-05-11T11:04:08;95605.19;;;14.50;97.09
8298;BME280;4187;42.778;23.242;2023-05-11T11:06:40;95606.84;;;14.17;95.38
8298;BME280;4187;42.778;23.242;2023-05-11T11:09:09;95604.97;;;14.09;97.34
8298;BME280;4187;42.778;23.242;2023-05-11T11:11:39;95600.28;;;14.03;96.46
8298;BME280;4187;42.778;23.242;2023-05-11T11:14:08;95589.97;;;13.92;97.45
8298;BME280;4187;42.778;23.242;2023-05-11T11:16:35;95595.06;;;14.19;96.26
8298;BME280;4187;42.778;23.242;2023-05-11T11:22:43;95581.25;;;14.42;94.00
8298;BME280;4187;42.778;23.242;2023-05-11T11:25:11;95596.84;;;14.36;94.91
8298;BME280;4187;42.778;23.242;2023-05-11T11:27:55;95590.06;;;14.08;93.41
8298;BME280;4187;42.778;23.242;2023-05-11T11:30:24;95586.78;;;14.22;96.10
8298;BME280;4187;42.778;23.242;2023-05-11T11:32:54;95600.72;;;14.16;95.81
8298;BME280;4187;42.778;23.242;2023-05-11T11:35:43;95592.28;;;13.95;97.60
8298;BME280;4187;42.778;23.242;2023-05-11T11:38:14;95576.13;;;14.14;99.34
8298;BME280;4187;42.778;23.242;2023-05-11T11:40:42;95581.47;;;14.22;95.89
8298;BME280;4187;42.778;23.242;2023-05-11T11:43:09;95567.88;;;14.25;97.92
8298;BME280;4187;42.778;23.242;2023-05-11T11:45:38;95579.84;;;14.21;94.77
8298;BME280;4187;42.778;23.242;2023-05-11T11:48:13;95575.69;;;14.19;95.28
8298;BME280;4187;42.778;23.242;2023-05-11T11:50:45;95582.06;;;14.34;96.60
8298;BME280;4187;42.778;23.242;2023-05-11T11:56:47;95574.97;;;14.17;94.94
8298;BME280;4187;42.778;23.242;2023-05-11T11:59:14;95565.00;;;14.03;97.56
8298;BME280;4187;42.778;23.242;2023-05-11T12:01:42;95573.38;;;14.24;95.21
8298;BME280;4187;42.778;23.242;2023-05-11T12:07:18;95569.84;;;14.15;95.45
8298;BME280;4187;42.778;23.242;2023-05-11T12:09:45;95564.22;;;14.18;94.94
8298;BME280;4187;42.778;23.242;2023-05-11T12:12:16;95565.91;;;14.27;93.39
8298;BME280;4187;42.778;23.242;2023-05-11T12:14:44;95582.53;;;14.29;95.37
8298;BME280;4187;42.778;23.242;2023-05-11T12:17:14;95571.06;;;14.29;95.98
8298;BME280;4187;42.778;23.242;2023-05-11T12:19:42;95570.22;;;14.28;97.03
8298;BME280;4187;42.778;23.242;2023-05-11T12:22:10;95558.56;;;14.13;95.92
8298;BME280;4187;42.778;23.242;2023-05-11T12:24:39;95558.94;;;14.26;98.84
8298;BME280;4187;42.778;23.242;2023-05-11T12:27:06;95555.19;;;14.37;97.10
8298;BME280;4187;42.778;23.242;2023-05-11T12:29:34;95553.06;;;14.41;96.48
8298;BME280;4187;42.778;23.242;2023-05-11T12:32:01;95558.59;;;14.21;95.20
8298;BME280;4187;42.778;23.242;2023-05-11T12:34:27;95556.69;;;14.06;97.37
8298;BME280;4187;42.778;23.242;2023-05-11T12:36:54;95550.00;;;13.94;97.52
8298;BME280;4187;42.778;23.242;2023-05-11T12:39:25;95532.59;;;13.91;96.81
8298;BME280;4187;42.778;23.242;2023-05-11T12:41:53;95536.13;;;14.00;98.03
8298;BME280;4187;42.778;23.242;2023-05-11T12:44:22;95538.22;;;13.88;98.44
8298;BME280;4187;42.778;23.242;2023-05-11T12:46:50;95527.91;;;13.85;99.02
8298;BME280;4187;42.778;23.242;2023-05-11T12:49:18;95527.94;;;13.93;98.91
8298;BME280;4187;42.778;23.242;2023-05-11T12:51:47;95531.22;;;13.87;97.69
8298;BME280;4187;42.778;23.242;2023-05-11T12:54:31;95533.03;;;13.78;99.48
8298;BME280;4187;42.778;23.242;2023-05-11T12:56:59;95526.06;;;13.77;98.57
8298;BME280;4187;42.778;23.242;2023-05-11T12:59:31;95534.88;;;13.86;99.93
8298;BME280;4187;42.778;23.242;2023-05-11T13:02:12;95529.03;;;13.74;100.00
8298;BME280;4187;42.778;23.242;2023-05-11T13:04:40;95521.06;;;13.74;100.00
8298;BME280;4187;42.778;23.242;2023-05-11T13:07:09;95516.59;;;13.75;100.00
8298;BME280;4187;42.778;23.242;2023-05-11T13:09:36;95513.78;;;13.76;100.00
8298;BME280;4187;42.778;23.242;2023-05-11T13:12:09;95509.16;;;13.78;99.86
8298;BME280;4187;42.778;23.242;2023-05-11T13:14:36;95516.63;;;13.83;99.76
8298;BME280;4187;42.778;23.242;2023-05-11T13:17:03;95511.13;;;13.76;99.18
8298;BME280;4187;42.778;23.242;2023-05-11T13:19:32;95487.06;;;13.70;100.00
8298;BME280;4187;42.778;23.242;2023-05-11T13:21:59;95494.94;;;13.96;100.00
8298;BME280;4187;42.778;23.242;2023-05-11T13:24:26;95504.13;;;14.09;100.00
8298;BME280;4187;42.778;23.242;2023-05-11T13:26:53;95500.81;;;14.07;98.32
8298;BME280;4187;42.778;23.242;2023-05-11T13:29:21;95504.56;;;13.89;98.92